Time;durP1;ratioP1;P1;durP2;ratioP2;P2;SDS_P1;SDS_P2;PMS_P1;PMS_P2;Temp;Humidity;BMP_temperature;BMP_pressure;BME280_temperature;BME280_humidity;BME280_pressure;Samples;Min_cycle;Max_cycle;Signal;HPM_P1;HPM_P2
2022/07/07 00:01:44;;;;;;;15.90;8.75;;;;;;;;;;5052151;28;20044;-67
2022/07/07 00:04:10;;;;;;;13.32;8.60;;;;;;;;;;5060222;28;20040;-67
2022/07/07 00:06:37;;;;;;;11.90;8.27;;;;;;;;;;5065670;28;20560;-67
2022/07/07 00:09:03;;;;;;;12.75;8.82;;;;;;;;;;5056953;28;20155;-67
2022/07/07 00:11:29;;;;;;;13.48;9.15;;;;;;;;;;5060283;28;20036;-67
2022/07/07 00:13:56;;;;;;;12.82;8.80;;;;;;;;;;5052330;28;20262;-67
2022/07/07 00:16:22;;;;;;;13.80;9.23;;;;;;;;;;5059198;28;20082;-67
2022/07/07 00:18:49;;;;;;;13.30;8.88;;;;;;;;;;5059844;28;20128;-67
2022/07/07 00:21:15;;;;;;;11.80;8.80;;;;;;;;;;5063682;28;20044;-67
2022/07/07 00:23:41;;;;;;;16.58;9.02;;;;;;;;;;5067287;28;20044;-67
2022/07/07 00:26:07;;;;;;;14.68;9.65;;;;;;;;;;5070804;28;20051;-68
2022/07/07 00:28:34;;;;;;;15.75;9.90;;;;;;;;;;5059159;28;20040;-67
2022/07/07 00:31:00;;;;;;;13.73;9.10;;;;;;;;;;5058163;28;20044;-68
2022/07/07 00:33:26;;;;;;;15.30;9.90;;;;;;;;;;5051321;28;20037;-67
2022/07/07 00:35:52;;;;;;;16.15;9.60;;;;;;;;;;5057686;28;20089;-67
2022/07/07 00:38:18;;;;;;;17.00;10.18;;;;;;;;;;5067744;28;20096;-67
2022/07/07 00:40:48;;;;;;;13.65;9.50;;;;;;;;;;5064526;28;20039;-68
2022/07/07 00:43:14;;;;;;;13.65;9.73;;;;;;;;;;5068120;28;20036;-68
2022/07/07 00:45:41;;;;;;;15.50;9.80;;;;;;;;;;5059594;28;20052;-68
2022/07/07 00:48:08;;;;;;;14.07;10.10;;;;;;;;;;5058970;28;20053;-68
2022/07/07 00:50:34;;;;;;;15.75;9.27;;;;;;;;;;5068794;28;20104;-68
2022/07/07 00:53:00;;;;;;;16.05;9.55;;;;;;;;;;5062944;28;20071;-67
2022/07/07 00:55:26;;;;;;;15.00;9.70;;;;;;;;;;5060688;28;20048;-68
2022/07/07 00:57:52;;;;;;;14.48;9.85;;;;;;;;;;5062989;28;20033;-68
2022/07/07 01:00:18;;;;;;;15.75;10.02;;;;;;;;;;5059480;28;20123;-68
2022/07/07 01:02:44;;;;;;;15.13;10.02;;;;;;;;;;5066273;28;20111;-67
2022/07/07 01:05:11;;;;;;;15.38;9.73;;;;;;;;;;5070044;28;20036;-68
2022/07/07 01:07:37;;;;;;;17.75;10.55;;;;;;;;;;5068902;28;20028;-67
2022/07/07 01:10:04;;;;;;;17.02;10.95;;;;;;;;;;5055598;28;20045;-68
2022/07/07 01:12:34;;;;;;;15.30;10.73;;;;;;;;;;5069132;28;20056;-68
2022/07/07 01:15:00;;;;;;;13.73;10.20;;;;;;;;;;5062531;28;20577;-68
2022/07/07 01:17:26;;;;;;;15.38;11.23;;;;;;;;;;5056310;28;20041;-68
2022/07/07 01:19:53;;;;;;;15.50;10.75;;;;;;;;;;5069526;28;20058;-68
2022/07/07 01:22:21;;;;;;;16.90;10.80;;;;;;;;;;5061408;28;20048;-68
2022/07/07 01:24:47;;;;;;;18.15;11.02;;;;;;;;;;5068968;28;20119;-68
2022/07/07 01:27:14;;;;;;;18.38;11.13;;;;;;;;;;5063687;28;20115;-68
2022/07/07 01:29:45;;;;;;;20.27;11.07;;;;;;;;;;5072306;28;20037;-68
2022/07/07 01:32:11;;;;;;;17.50;10.70;;;;;;;;;;5074102;28;20181;-67
2022/07/07 01:34:42;;;;;;;17.55;9.57;;;;;;;;;;5070118;28;20290;-68
2022/07/07 01:37:08;;;;;;;16.75;10.45;;;;;;;;;;5073805;28;20043;-68
2022/07/07 01:39:35;;;;;;;15.77;10.20;;;;;;;;;;5062394;28;20044;-67
2022/07/07 01:42:01;;;;;;;17.42;11.40;;;;;;;;;;5064752;28;20048;-67
2022/07/07 01:44:30;;;;;;;15.48;10.60;;;;;;;;;;5071458;28;20036;-66
2022/07/07 01:46:56;;;;;;;19.00;11.77;;;;;;;;;;5067240;28;20041;-66
2022/07/07 01:49:22;;;;;;;18.35;11.65;;;;;;;;;;5068426;28;20055;-67
2022/07/07 01:51:48;;;;;;;18.42;11.70;;;;;;;;;;5062837;28;20133;-67
2022/07/07 01:54:14;;;;;;;15.15;10.32;;;;;;;;;;5065886;28;20390;-67
2022/07/07 01:56:40;;;;;;;13.55;7.70;;;;;;;;;;5060151;28;20117;-67
2022/07/07 01:59:06;;;;;;;8.65;5.85;;;;;;;;;;5062922;28;20040;-68
2022/07/07 02:01:32;;;;;;;9.35;5.82;;;;;;;;;;5071862;28;20086;-67
2022/07/07 02:03:58;;;;;;;7.78;4.68;;;;;;;;;;5070547;28;20044;-68
2022/07/07 02:06:24;;;;;;;6.93;5.05;;;;;;;;;;5071046;28;20040;-68
2022/07/07 02:08:50;;;;;;;8.13;5.28;;;;;;;;;;5065333;28;20075;-68
2022/07/07 02:11:16;;;;;;;8.90;5.10;;;;;;;;;;5054110;28;20380;-68
2022/07/07 02:13:47;;;;;;;7.30;5.20;;;;;;;;;;5064800;28;20119;-68
2022/07/07 02:16:13;;;;;;;7.95;4.07;;;;;;;;;;5061296;28;20032;-67
2022/07/07 02:18:39;;;;;;;9.40;4.80;;;;;;;;;;5063327;28;20032;-66
2022/07/07 02:21:06;;;;;;;5.63;4.22;;;;;;;;;;5065644;28;20039;-66
2022/07/07 02:23:33;;;;;;;9.68;4.60;;;;;;;;;;5067075;28;20044;-66
2022/07/07 02:25:59;;;;;;;4.78;4.03;;;;;;;;;;5071471;28;20040;-66
2022/07/07 02:28:26;;;;;;;5.75;3.85;;;;;;;;;;5071741;28;20043;-66
2022/07/07 02:30:53;;;;;;;6.53;3.90;;;;;;;;;;5069504;28;20049;-66
2022/07/07 02:33:19;;;;;;;5.18;3.38;;;;;;;;;;5070537;28;20051;-66
2022/07/07 02:35:45;;;;;;;4.53;2.67;;;;;;;;;;5064879;28;20033;-66
2022/07/07 02:38:11;;;;;;;6.10;3.10;;;;;;;;;;5068756;28;20036;-67
2022/07/07 02:40:37;;;;;;;5.55;2.85;;;;;;;;;;5066588;28;20067;-67
2022/07/07 02:43:03;;;;;;;3.95;2.75;;;;;;;;;;5071858;28;20079;-67
2022/07/07 02:45:29;;;;;;;3.13;2.72;;;;;;;;;;5065449;28;20075;-67
2022/07/07 02:47:55;;;;;;;3.70;2.55;;;;;;;;;;5066199;28;20552;-68
2022/07/07 02:50:22;;;;;;;3.65;2.50;;;;;;;;;;5063405;28;20036;-68
2022/07/07 02:52:48;;;;;;;3.28;2.67;;;;;;;;;;5073403;28;20068;-68
2022/07/07 02:55:13;;;;;;;3.45;2.13;;;;;;;;;;5059857;28;20520;-68
2022/07/07 02:57:40;;;;;;;4.13;2.10;;;;;;;;;;5067561;28;20040;-68
2022/07/07 03:00:06;;;;;;;4.75;2.75;;;;;;;;;;5065672;28;20508;-68
2022/07/07 03:02:32;;;;;;;4.88;2.35;;;;;;;;;;5055521;28;20059;-68
2022/07/07 03:04:58;;;;;;;3.78;2.20;;;;;;;;;;5063950;28;20036;-68
2022/07/07 03:07:24;;;;;;;2.65;2.20;;;;;;;;;;5070234;28;20102;-68
2022/07/07 03:09:50;;;;;;;3.40;2.53;;;;;;;;;;5067397;28;20042;-68
2022/07/07 03:12:16;;;;;;;4.97;2.45;;;;;;;;;;5070645;28;20074;-68
2022/07/07 03:14:42;;;;;;;5.13;2.92;;;;;;;;;;5065862;28;20037;-68
2022/07/07 03:17:08;;;;;;;7.00;2.90;;;;;;;;;;5072031;28;20041;-68
2022/07/07 03:19:34;;;;;;;4.88;3.08;;;;;;;;;;5059902;28;20478;-68
2022/07/07 03:22:01;;;;;;;6.22;3.35;;;;;;;;;;5071344;28;20040;-68
2022/07/07 03:24:31;;;;;;;5.78;3.50;;;;;;;;;;5071771;28;20510;-68
2022/07/07 03:27:00;;;;;;;6.28;3.70;;;;;;;;;;5058114;28;20041;-68
2022/07/07 03:29:26;;;;;;;5.63;3.47;;;;;;;;;;5063413;28;20040;-68
2022/07/07 03:31:53;;;;;;;7.50;3.83;;;;;;;;;;5063116;28;20047;-68
2022/07/07 03:34:19;;;;;;;7.47;3.72;;;;;;;;;;5068741;28;20044;-68
2022/07/07 03:36:45;;;;;;;8.13;3.78;;;;;;;;;;5064104;28;20037;-68
2022/07/07 03:39:11;;;;;;;5.57;3.40;;;;;;;;;;5063376;28;20037;-68
2022/07/07 03:41:38;;;;;;;6.57;3.80;;;;;;;;;;5065645;28;20040;-68
2022/07/07 03:44:04;;;;;;;7.20;3.78;;;;;;;;;;5069402;28;20044;-68
2022/07/07 03:46:30;;;;;;;6.40;3.60;;;;;;;;;;5060649;28;20079;-68
2022/07/07 03:48:56;;;;;;;9.98;3.75;;;;;;;;;;5071643;28;20068;-68
2022/07/07 03:51:22;;;;;;;6.40;3.22;;;;;;;;;;5061286;28;20048;-68
2022/07/07 03:53:48;;;;;;;5.80;3.22;;;;;;;;;;5069284;28;20037;-68
2022/07/07 03:56:14;;;;;;;8.95;3.40;;;;;;;;;;5070579;28;20089;-68
2022/07/07 03:58:40;;;;;;;7.60;3.28;;;;;;;;;;5057636;28;20086;-68
2022/07/07 04:01:06;;;;;;;8.60;3.03;;;;;;;;;;5057267;28;20079;-68
2022/07/07 04:03:33;;;;;;;7.88;2.92;;;;;;;;;;5063235;28;20059;-68
2022/07/07 04:05:59;;;;;;;6.13;2.80;;;;;;;;;;5062564;28;20033;-68
2022/07/07 04:08:25;;;;;;;9.77;2.97;;;;;;;;;;5064808;28;20497;-68
2022/07/07 04:10:51;;;;;;;8.50;2.80;;;;;;;;;;5065789;28;20039;-68
2022/07/07 04:13:17;;;;;;;4.50;2.65;;;;;;;;;;5069516;28;20044;-68
2022/07/07 04:15:43;;;;;;;6.65;2.60;;;;;;;;;;5063919;28;20056;-69
2022/07/07 04:18:09;;;;;;;6.13;2.30;;;;;;;;;;5070908;28;20036;-68
2022/07/07 04:20:35;;;;;;;8.02;2.42;;;;;;;;;;5062960;28;20036;-69
2022/07/07 04:23:01;;;;;;;8.45;2.83;;;;;;;;;;5072450;28;20040;-68
2022/07/07 04:25:27;;;;;;;6.25;2.33;;;;;;;;;;5065164;28;20071;-68
2022/07/07 04:27:53;;;;;;;4.35;2.42;;;;;;;;;;5065714;28;20054;-68
2022/07/07 04:30:19;;;;;;;8.77;2.42;;;;;;;;;;5067888;28;20044;-68
2022/07/07 04:32:45;;;;;;;6.60;2.22;;;;;;;;;;5055772;28;20051;-68
2022/07/07 04:35:11;;;;;;;5.90;2.00;;;;;;;;;;5062082;28;20033;-68
2022/07/07 04:37:37;;;;;;;8.75;2.10;;;;;;;;;;5070162;28;20032;-68
2022/07/07 04:40:03;;;;;;;9.80;2.10;;;;;;;;;;5081460;28;20413;-68
2022/07/07 04:42:29;;;;;;;5.97;1.80;;;;;;;;;;5107085;22;20516;-64
2022/07/07 04:44:56;;;;;;;4.00;0.88;;;;;;;;;;5083024;28;20122;-63
2022/07/07 04:47:22;;;;;;;3.22;0.90;;;;;;;;;;5105737;28;20047;-63
2022/07/07 04:49:48;;;;;;;2.92;1.08;;;;;;;;;;5084322;28;20070;-63
2022/07/07 04:52:14;;;;;;;3.78;0.90;;;;;;;;;;5080060;28;20048;-63
2022/07/07 04:54:40;;;;;;;3.30;1.63;;;;;;;;;;5073337;28;20071;-64
2022/07/07 04:57:06;;;;;;;4.18;0.88;;;;;;;;;;5071684;28;20460;-64
2022/07/07 04:59:32;;;;;;;4.90;0.85;;;;;;;;;;5070083;28;20032;-64
2022/07/07 05:01:58;;;;;;;4.45;0.80;;;;;;;;;;5072967;28;20044;-64
2022/07/07 05:04:24;;;;;;;3.35;1.10;;;;;;;;;;5073541;28;20040;-64
2022/07/07 05:06:50;;;;;;;7.05;1.00;;;;;;;;;;5077598;28;20146;-64
2022/07/07 05:09:16;;;;;;;6.90;1.00;;;;;;;;;;5073797;28;20048;-64
2022/07/07 05:11:42;;;;;;;4.15;0.90;;;;;;;;;;5071197;28;20075;-64
2022/07/07 05:14:08;;;;;;;8.52;1.20;;;;;;;;;;5074741;28;20071;-64
2022/07/07 05:16:34;;;;;;;8.60;1.10;;;;;;;;;;5075599;28;20040;-64
2022/07/07 05:19:00;;;;;;;6.55;1.20;;;;;;;;;;5070034;28;20036;-64
2022/07/07 05:21:27;;;;;;;4.70;1.38;;;;;;;;;;5071438;28;20067;-64
2022/07/07 05:23:53;;;;;;;7.88;1.20;;;;;;;;;;5078713;28;20036;-64
2022/07/07 05:26:19;;;;;;;4.47;1.02;;;;;;;;;;5078542;28;20097;-64
2022/07/07 05:28:45;;;;;;;10.20;1.50;;;;;;;;;;5070623;28;20464;-64
2022/07/07 05:31:12;;;;;;;3.38;1.27;;;;;;;;;;5075924;28;20044;-64
2022/07/07 05:33:39;;;;;;;5.57;1.17;;;;;;;;;;5070582;28;20505;-64
2022/07/07 05:36:05;;;;;;;5.32;1.10;;;;;;;;;;5072751;28;20068;-64
2022/07/07 05:38:31;;;;;;;5.30;1.05;;;;;;;;;;5073178;28;20046;-64
2022/07/07 05:40:57;;;;;;;5.45;1.10;;;;;;;;;;5053566;28;20041;-64
2022/07/07 05:43:24;;;;;;;6.15;1.50;;;;;;;;;;5044343;28;20039;-64
2022/07/07 05:45:50;;;;;;;4.45;0.73;;;;;;;;;;5042825;28;20505;-64
2022/07/07 05:48:16;;;;;;;5.47;1.13;;;;;;;;;;5088404;28;20495;-64
2022/07/07 05:50:42;;;;;;;8.07;1.10;;;;;;;;;;5074375;28;20033;-64
2022/07/07 05:53:08;;;;;;;5.43;1.35;;;;;;;;;;5061777;28;20047;-65
2022/07/07 05:55:34;;;;;;;4.28;0.88;;;;;;;;;;5061474;28;20086;-64
2022/07/07 05:58:00;;;;;;;2.67;0.90;;;;;;;;;;5060916;28;20045;-64
2022/07/07 06:00:27;;;;;;;5.47;1.10;;;;;;;;;;5060526;28;20032;-64
2022/07/07 06:02:53;;;;;;;8.38;1.38;;;;;;;;;;5062100;28;20498;-64
2022/07/07 06:05:19;;;;;;;4.75;1.42;;;;;;;;;;5069338;28;20151;-63
2022/07/07 06:07:45;;;;;;;7.15;1.33;;;;;;;;;;5070641;28;20048;-63
2022/07/07 06:10:12;;;;;;;5.15;1.20;;;;;;;;;;5071671;28;20036;-64
2022/07/07 06:12:38;;;;;;;8.02;1.30;;;;;;;;;;5062617;28;20097;-64
2022/07/07 06:15:05;;;;;;;7.78;1.67;;;;;;;;;;5063358;28;20124;-64
2022/07/07 06:17:31;;;;;;;5.85;1.48;;;;;;;;;;5064444;28;20040;-63
2022/07/07 06:19:58;;;;;;;5.28;1.33;;;;;;;;;;5064317;28;20438;-63
2022/07/07 06:22:25;;;;;;;6.97;1.45;;;;;;;;;;5074958;28;20104;-63
2022/07/07 06:24:51;;;;;;;3.40;1.00;;;;;;;;;;5083603;28;20036;-64
2022/07/07 06:27:17;;;;;;;10.70;1.40;;;;;;;;;;5077292;28;20040;-64
2022/07/07 06:29:43;;;;;;;9.10;1.40;;;;;;;;;;5074402;28;20076;-64
2022/07/07 06:32:10;;;;;;;8.02;1.58;;;;;;;;;;5083087;28;20040;-64
2022/07/07 06:34:36;;;;;;;6.60;1.50;;;;;;;;;;5083619;28;20032;-63
2022/07/07 06:37:02;;;;;;;9.75;1.67;;;;;;;;;;5072444;28;20405;-63
2022/07/07 06:39:29;;;;;;;7.32;1.35;;;;;;;;;;5088168;28;20040;-64
2022/07/07 06:41:55;;;;;;;6.13;1.50;;;;;;;;;;5073907;28;20043;-64
2022/07/07 06:44:21;;;;;;;4.40;1.20;;;;;;;;;;5073900;28;20044;-64
2022/07/07 06:46:47;;;;;;;5.80;1.25;;;;;;;;;;5067173;28;21553;-64
2022/07/07 06:49:13;;;;;;;5.50;1.30;;;;;;;;;;5068435;28;20075;-64
2022/07/07 06:51:39;;;;;;;7.65;1.50;;;;;;;;;;5066222;28;20072;-64
2022/07/07 06:54:05;;;;;;;6.65;1.23;;;;;;;;;;5069601;28;20028;-64
2022/07/07 06:56:31;;;;;;;6.28;1.23;;;;;;;;;;5077548;28;20031;-64
2022/07/07 06:58:57;;;;;;;6.68;1.70;;;;;;;;;;5075376;28;20041;-64
2022/07/07 07:01:23;;;;;;;6.47;1.23;;;;;;;;;;5080418;28;20047;-64
2022/07/07 07:03:49;;;;;;;6.43;1.23;;;;;;;;;;5078373;28;20405;-64
2022/07/07 07:06:15;;;;;;;5.00;1.30;;;;;;;;;;5081401;28;20048;-64
2022/07/07 07:08:42;;;;;;;7.32;1.30;;;;;;;;;;5078571;28;20032;-64
2022/07/07 07:11:08;;;;;;;4.10;1.10;;;;;;;;;;5062285;28;20571;-64
2022/07/07 07:13:34;;;;;;;7.32;1.48;;;;;;;;;;5068238;28;20040;-64
2022/07/07 07:16:00;;;;;;;5.32;1.08;;;;;;;;;;5068300;28;20138;-63
2022/07/07 07:18:26;;;;;;;4.88;1.20;;;;;;;;;;5070698;28;20188;-63
2022/07/07 07:20:52;;;;;;;4.38;1.13;;;;;;;;;;5077696;28;20036;-63
2022/07/07 07:23:18;;;;;;;4.88;1.30;;;;;;;;;;5074304;28;20420;-63
2022/07/07 07:25:44;;;;;;;3.35;0.77;;;;;;;;;;5074403;28;20379;-64
2022/07/07 07:28:10;;;;;;;5.32;1.02;;;;;;;;;;5084399;28;20049;-64
2022/07/07 07:30:36;;;;;;;3.20;0.75;;;;;;;;;;5071582;28;20043;-64
2022/07/07 07:33:03;;;;;;;3.88;0.82;;;;;;;;;;5073288;28;20375;-63
2022/07/07 07:35:29;;;;;;;3.47;0.93;;;;;;;;;;5067931;28;20105;-64
2022/07/07 07:37:55;;;;;;;4.03;0.60;;;;;;;;;;5066816;28;20185;-63
2022/07/07 07:40:21;;;;;;;3.28;0.63;;;;;;;;;;5072703;28;20416;-64
2022/07/07 07:42:47;;;;;;;2.95;0.70;;;;;;;;;;5078297;28;20514;-64
2022/07/07 07:45:13;;;;;;;3.75;0.90;;;;;;;;;;5083190;28;20036;-63
2022/07/07 07:47:43;;;;;;;1.40;0.60;;;;;;;;;;5071268;28;20040;-64
2022/07/07 07:50:11;;;;;;;4.43;0.65;;;;;;;;;;5069220;28;20044;-64
2022/07/07 07:52:39;;;;;;;3.70;0.98;;;;;;;;;;5067335;28;20511;-64
2022/07/07 07:55:05;;;;;;;3.55;0.60;;;;;;;;;;5073715;28;20498;-64
2022/07/07 07:57:31;;;;;;;6.60;0.80;;;;;;;;;;5082209;28;20036;-64
2022/07/07 07:59:58;;;;;;;3.03;0.70;;;;;;;;;;5072569;28;20041;-64
2022/07/07 08:02:24;;;;;;;2.70;0.70;;;;;;;;;;5070544;28;20047;-63
2022/07/07 08:04:50;;;;;;;1.98;0.75;;;;;;;;;;5069331;28;20058;-64
2022/07/07 08:07:17;;;;;;;2.63;0.60;;;;;;;;;;5064724;28;20113;-63
2022/07/07 08:09:43;;;;;;;3.78;0.70;;;;;;;;;;5076635;28;20568;-63
2022/07/07 08:12:09;;;;;;;4.60;0.85;;;;;;;;;;5069871;28;20041;-63
2022/07/07 08:14:35;;;;;;;5.68;0.93;;;;;;;;;;5073494;28;20090;-63
2022/07/07 08:17:01;;;;;;;2.78;0.65;;;;;;;;;;5071182;28;20094;-63
2022/07/07 08:19:27;;;;;;;3.03;0.70;;;;;;;;;;5069530;28;20383;-64
2022/07/07 08:21:53;;;;;;;3.47;0.70;;;;;;;;;;5064308;28;20433;-63
2022/07/07 08:24:19;;;;;;;3.97;0.77;;;;;;;;;;5065270;28;20495;-65
2022/07/07 08:26:45;;;;;;;3.35;0.60;;;;;;;;;;5064631;28;20449;-65
2022/07/07 08:29:11;;;;;;;2.33;0.70;;;;;;;;;;5067975;28;20040;-64
2022/07/07 08:31:37;;;;;;;4.40;0.80;;;;;;;;;;5078350;28;20536;-64
2022/07/07 08:34:03;;;;;;;2.35;0.63;;;;;;;;;;5079697;28;20064;-65
2022/07/07 08:36:32;;;;;;;3.47;0.80;;;;;;;;;;5074289;28;20047;-64
2022/07/07 08:38:58;;;;;;;2.88;0.77;;;;;;;;;;5074070;28;20111;-64
2022/07/07 08:41:25;;;;;;;2.75;0.75;;;;;;;;;;5069730;28;20194;-64
2022/07/07 08:43:51;;;;;;;2.90;0.50;;;;;;;;;;5071039;28;20036;-65
2022/07/07 08:46:17;;;;;;;4.13;0.68;;;;;;;;;;5068512;28;20090;-65
2022/07/07 08:48:43;;;;;;;4.07;0.60;;;;;;;;;;5078276;28;20047;-65
2022/07/07 08:51:10;;;;;;;4.32;0.70;;;;;;;;;;5084403;28;20032;-64
2022/07/07 08:53:39;;;;;;;3.35;0.80;;;;;;;;;;5074312;28;20036;-65
2022/07/07 08:56:05;;;;;;;5.55;0.93;;;;;;;;;;5070847;28;20032;-64
2022/07/07 08:58:32;;;;;;;5.32;0.60;;;;;;;;;;5065762;28;20039;-64
2022/07/07 09:00:58;;;;;;;3.30;0.60;;;;;;;;;;5067196;28;20036;-65
2022/07/07 09:03:27;;;;;;;4.97;0.63;;;;;;;;;;5080119;28;20063;-64
2022/07/07 09:05:54;;;;;;;4.65;0.68;;;;;;;;;;5074048;28;20044;-65
2022/07/07 09:08:21;;;;;;;2.67;0.60;;;;;;;;;;5101293;28;20083;-64
2022/07/07 09:10:47;;;;;;;4.18;0.60;;;;;;;;;;5070673;28;20040;-65
2022/07/07 09:13:25;;;;;;;3.58;0.73;;;;;;;;;;5071635;28;20051;-65
2022/07/07 09:15:52;;;;;;;3.08;0.60;;;;;;;;;;5070711;28;20070;-65
2022/07/07 09:18:37;;;;;;;3.92;0.88;;;;;;;;;;5071521;28;20483;-65
2022/07/07 09:21:04;;;;;;;5.10;0.90;;;;;;;;;;5070232;28;20162;-65
2022/07/07 09:23:31;;;;;;;6.93;0.90;;;;;;;;;;5069960;28;20040;-65
2022/07/07 09:25:57;;;;;;;2.40;0.70;;;;;;;;;;5070902;28;20405;-65
2022/07/07 09:28:25;;;;;;;2.55;0.80;;;;;;;;;;5070945;28;20055;-65
2022/07/07 09:30:51;;;;;;;4.72;0.80;;;;;;;;;;5071047;28;20086;-64
2022/07/07 09:33:21;;;;;;;6.30;1.10;;;;;;;;;;5070784;28;20094;-65
2022/07/07 09:38:33;;;;;;;4.72;1.10;;;;;;;;;;5082359;28;20032;-65
2022/07/07 09:41:10;;;;;;;3.78;1.10;;;;;;;;;;5082522;28;20444;-64
2022/07/07 09:43:51;;;;;;;3.83;1.10;;;;;;;;;;5077290;28;20033;-65
2022/07/07 09:46:16;;;;;;;;;;;;;;;;;;5071928;28;20049;-64
2022/07/07 09:48:44;;;;;;;5.28;1.30;;;;;;;;;;5072599;28;19924;-64
2022/07/07 09:51:10;;;;;;;5.35;1.30;;;;;;;;;;5080533;28;20071;-64
2022/07/07 09:53:51;;;;;;;5.07;1.20;;;;;;;;;;5078898;28;20058;-65
2022/07/07 09:56:18;;;;;;;5.43;1.10;;;;;;;;;;5080646;28;20078;-64
2022/07/07 09:58:44;;;;;;;4.78;1.35;;;;;;;;;;5077232;28;20036;-64
2022/07/07 10:01:11;;;;;;;3.15;1.30;;;;;;;;;;5078149;28;20037;-65
2022/07/07 10:03:37;;;;;;;6.32;1.20;;;;;;;;;;5074125;28;20064;-65
2022/07/07 10:06:03;;;;;;;2.65;1.08;;;;;;;;;;5064703;28;20332;-65
2022/07/07 10:08:31;;;;;;;3.42;1.17;;;;;;;;;;5079751;28;20033;-65
2022/07/07 10:10:57;;;;;;;4.30;0.90;;;;;;;;;;5078103;28;20044;-64
2022/07/07 10:13:23;;;;;;;4.55;1.05;;;;;;;;;;5073589;28;20132;-64
2022/07/07 10:15:50;;;;;;;8.77;1.27;;;;;;;;;;5076830;28;20436;-64
2022/07/07 10:18:16;;;;;;;4.10;1.08;;;;;;;;;;5078866;28;20063;-64
2022/07/07 10:20:44;;;;;;;3.47;0.80;;;;;;;;;;5072874;28;20036;-64
2022/07/07 10:23:10;;;;;;;6.05;1.40;;;;;;;;;;5072345;28;20044;-64
2022/07/07 10:25:36;;;;;;;4.20;1.33;;;;;;;;;;5075525;28;20035;-64
2022/07/07 10:28:02;;;;;;;5.25;1.15;;;;;;;;;;5072955;28;20032;-64
2022/07/07 10:30:29;;;;;;;5.45;1.20;;;;;;;;;;5070410;28;20055;-64
2022/07/07 10:32:56;;;;;;;4.85;1.30;;;;;;;;;;5072404;28;20040;-64
2022/07/07 10:35:23;;;;;;;3.45;1.20;;;;;;;;;;5073110;28;20064;-64
2022/07/07 10:37:50;;;;;;;4.85;1.58;;;;;;;;;;5079320;28;20508;-64
2022/07/07 10:40:21;;;;;;;5.32;1.13;;;;;;;;;;5070723;28;20044;-64
2022/07/07 10:42:57;;;;;;;5.00;1.20;;;;;;;;;;5094942;22;20057;-64
2022/07/07 10:45:23;;;;;;;3.65;0.90;;;;;;;;;;5110594;28;20032;-64
2022/07/07 10:47:49;;;;;;;4.35;1.10;;;;;;;;;;5110326;28;20081;-64
2022/07/07 10:50:24;;;;;;;1.95;0.80;;;;;;;;;;5104693;28;20047;-63
2022/07/07 10:52:50;;;;;;;4.03;1.20;;;;;;;;;;5094202;28;20068;-64
2022/07/07 10:55:16;;;;;;;4.45;1.30;;;;;;;;;;5096831;28;20032;-64
2022/07/07 10:57:44;;;;;;;6.70;1.30;;;;;;;;;;5103176;28;20119;-64
2022/07/07 11:00:18;;;;;;;2.28;1.05;;;;;;;;;;5110750;28;20032;-64
2022/07/07 11:02:49;;;;;;;4.22;1.10;;;;;;;;;;5107858;28;20493;-63
2022/07/07 11:05:15;;;;;;;2.42;1.10;;;;;;;;;;5114051;28;20114;-63
2022/07/07 11:07:56;;;;;;;3.78;1.13;;;;;;;;;;5108484;28;20043;-64
2022/07/07 11:10:22;;;;;;;;;;;;;;;;;;5107821;28;20050;-64
2022/07/07 11:12:53;;;;;;;5.97;1.30;;;;;;;;;;5108612;28;19927;-64
2022/07/07 11:15:26;;;;;;;4.30;1.40;;;;;;;;;;5108508;27;20035;-64
2022/07/07 11:17:52;;;;;;;4.13;1.58;;;;;;;;;;5111930;28;20431;-63
2022/07/07 11:20:22;;;;;;;5.72;1.27;;;;;;;;;;5104145;28;20032;-63
2022/07/07 11:22:50;;;;;;;5.38;1.60;;;;;;;;;;5100195;28;20097;-64
2022/07/07 11:25:20;;;;;;;8.77;2.08;;;;;;;;;;5112238;28;20048;-64
2022/07/07 11:27:49;;;;;;;9.93;1.70;;;;;;;;;;5102837;28;20043;-64
2022/07/07 11:30:16;;;;;;;7.28;1.75;;;;;;;;;;5104442;28;20047;-64
2022/07/07 11:32:43;;;;;;;6.95;1.90;;;;;;;;;;5108126;28;20074;-64
2022/07/07 11:35:10;;;;;;;10.13;2.10;;;;;;;;;;5101394;28;20432;-64
2022/07/07 11:37:39;;;;;;;8.35;1.70;;;;;;;;;;5101123;28;20040;-63
2022/07/07 11:40:06;;;;;;;6.57;1.70;;;;;;;;;;5097028;28;20032;-63
2022/07/07 11:42:36;;;;;;;8.20;1.95;;;;;;;;;;5100484;28;20043;-63
2022/07/07 11:45:02;;;;;;;7.63;1.63;;;;;;;;;;5093632;28;20036;-63
2022/07/07 11:47:32;;;;;;;10.30;2.00;;;;;;;;;;5101460;28;20044;-63
2022/07/07 11:49:59;;;;;;;11.02;2.13;;;;;;;;;;5101007;28;20546;-64
2022/07/07 11:52:25;;;;;;;14.10;2.33;;;;;;;;;;5082832;28;20505;-64
2022/07/07 11:54:51;;;;;;;11.18;2.20;;;;;;;;;;5092879;28;20047;-64
2022/07/07 11:57:30;;;;;;;12.52;2.03;;;;;;;;;;5106604;28;20115;-64
2022/07/07 12:00:15;;;;;;;9.38;2.22;;;;;;;;;;5093262;28;20036;-63
2022/07/07 12:02:42;;;;;;;12.90;2.25;;;;;;;;;;5101774;27;20047;-63
2022/07/07 12:05:08;;;;;;;14.15;2.33;;;;;;;;;;5099866;27;20047;-63
2022/07/07 12:07:34;;;;;;;11.73;2.45;;;;;;;;;;5101433;28;20161;-63
2022/07/07 12:10:00;;;;;;;11.05;2.30;;;;;;;;;;5102639;28;20044;-63
2022/07/07 12:12:26;;;;;;;8.65;1.70;;;;;;;;;;5106924;28;20040;-63
2022/07/07 12:14:52;;;;;;;7.85;1.88;;;;;;;;;;5096905;28;20036;-63
2022/07/07 12:17:37;;;;;;;11.95;1.90;;;;;;;;;;5100957;28;20464;-63
2022/07/07 12:20:04;;;;;;;12.55;2.40;;;;;;;;;;5112314;28;20511;-63
2022/07/07 12:22:34;;;;;;;11.00;2.28;;;;;;;;;;5107514;28;20052;-64
2022/07/07 12:25:04;;;;;;;9.57;2.43;;;;;;;;;;5099385;28;20040;-64
2022/07/07 12:27:31;;;;;;;12.00;3.20;;;;;;;;;;5100627;28;20342;-64
2022/07/07 12:30:00;;;;;;;7.95;1.98;;;;;;;;;;5109378;28;20045;-64
2022/07/07 12:32:27;;;;;;;10.40;1.63;;;;;;;;;;5108256;28;20123;-64
2022/07/07 12:34:53;;;;;;;11.55;2.00;;;;;;;;;;5106025;28;20477;-64
2022/07/07 12:37:19;;;;;;;12.38;2.28;;;;;;;;;;5103411;27;20493;-64
2022/07/07 12:39:49;;;;;;;8.35;1.63;;;;;;;;;;5104155;28;20071;-64
2022/07/07 12:42:24;;;;;;;9.70;1.52;;;;;;;;;;5101712;28;20047;-64
2022/07/07 12:44:50;;;;;;;9.35;1.77;;;;;;;;;;5101917;28;20497;-65
2022/07/07 12:47:16;;;;;;;7.97;1.83;;;;;;;;;;5108559;28;20040;-64
2022/07/07 12:49:52;;;;;;;11.82;2.20;;;;;;;;;;5107382;28;20035;-64
2022/07/07 12:52:18;;;;;;;9.55;2.08;;;;;;;;;;5108870;28;20052;-64
2022/07/07 12:54:44;;;;;;;7.82;2.03;;;;;;;;;;5108176;27;20127;-65
2022/07/07 12:57:10;;;;;;;9.98;1.95;;;;;;;;;;5111439;28;20103;-64
2022/07/07 12:59:37;;;;;;;9.73;1.77;;;;;;;;;;5101038;28;20038;-65
2022/07/07 13:02:04;;;;;;;12.40;2.45;;;;;;;;;;5097655;28;20046;-66
2022/07/07 13:04:30;;;;;;;15.27;2.33;;;;;;;;;;5102434;28;20067;-65
2022/07/07 13:06:56;;;;;;;11.93;1.67;;;;;;;;;;5105354;28;20046;-65
2022/07/07 13:09:22;;;;;;;9.80;1.98;;;;;;;;;;5099214;27;20036;-65
2022/07/07 13:11:51;;;;;;;13.25;2.63;;;;;;;;;;5111919;28;20488;-65
2022/07/07 13:14:20;;;;;;;9.57;2.60;;;;;;;;;;5101450;28;20067;-65
2022/07/07 13:16:47;;;;;;;10.70;1.80;;;;;;;;;;5106162;28;20074;-65
2022/07/07 13:19:13;;;;;;;9.40;2.05;;;;;;;;;;5099881;28;20032;-65
2022/07/07 13:21:39;;;;;;;10.75;2.67;;;;;;;;;;5104966;28;20085;-65
2022/07/07 13:24:06;;;;;;;7.10;2.05;;;;;;;;;;5111129;28;20035;-65
2022/07/07 13:26:33;;;;;;;12.10;2.08;;;;;;;;;;5114905;27;20040;-65
2022/07/07 13:28:59;;;;;;;9.55;2.17;;;;;;;;;;5104023;28;20547;-65
2022/07/07 13:31:25;;;;;;;11.95;2.70;;;;;;;;;;5105299;28;20048;-65
2022/07/07 13:33:51;;;;;;;12.15;2.10;;;;;;;;;;5105087;28;20082;-65
2022/07/07 13:36:17;;;;;;;13.18;2.00;;;;;;;;;;5105754;28;20071;-65
2022/07/07 13:38:43;;;;;;;10.25;2.75;;;;;;;;;;5110351;28;20064;-65
2022/07/07 13:41:09;;;;;;;11.20;2.45;;;;;;;;;;5112352;27;20031;-65
2022/07/07 13:43:35;;;;;;;12.95;2.30;;;;;;;;;;5094649;28;20055;-65
2022/07/07 13:46:01;;;;;;;7.43;2.10;;;;;;;;;;5099589;28;20408;-65
2022/07/07 13:49:08;;;;;;;8.63;1.92;;;;;;;;;;5107147;27;20050;-65
2022/07/07 13:51:34;;;;;;;7.10;1.80;;;;;;;;;;5082671;28;20071;-65
2022/07/07 13:54:00;;;;;;;7.50;1.63;;;;;;;;;;5105183;27;20074;-65
2022/07/07 13:56:26;;;;;;;7.25;1.98;;;;;;;;;;5110364;27;20031;-65
2022/07/07 13:58:52;;;;;;;7.95;1.70;;;;;;;;;;5109239;28;20531;-64
2022/07/07 14:01:18;;;;;;;7.90;1.73;;;;;;;;;;5111596;28;20377;-65
2022/07/07 14:03:44;;;;;;;7.53;2.05;;;;;;;;;;5111722;28;20035;-64
2022/07/07 14:06:10;;;;;;;8.10;1.70;;;;;;;;;;5106462;28;20028;-64
2022/07/07 14:08:36;;;;;;;8.05;2.00;;;;;;;;;;5107391;27;20459;-64
2022/07/07 14:11:02;;;;;;;9.80;1.80;;;;;;;;;;5101212;28;20493;-64
2022/07/07 14:13:28;;;;;;;10.23;2.45;;;;;;;;;;5104670;28;20048;-65
2022/07/07 14:15:54;;;;;;;7.07;1.92;;;;;;;;;;5108927;28;20039;-64
2022/07/07 14:18:20;;;;;;;11.45;2.08;;;;;;;;;;5104345;28;20054;-65
2022/07/07 14:20:46;;;;;;;8.75;2.08;;;;;;;;;;5111275;28;20077;-64
2022/07/07 14:23:12;;;;;;;10.13;2.00;;;;;;;;;;5113314;28;20040;-64
2022/07/07 14:25:38;;;;;;;10.07;2.33;;;;;;;;;;5108302;28;20116;-65
2022/07/07 14:28:04;;;;;;;8.68;2.33;;;;;;;;;;5110189;27;20035;-65
2022/07/07 14:30:30;;;;;;;10.75;2.10;;;;;;;;;;5110517;28;20047;-65
2022/07/07 14:32:56;;;;;;;10.05;2.10;;;;;;;;;;5111371;28;20084;-65
2022/07/07 14:35:22;;;;;;;11.18;2.03;;;;;;;;;;5103692;28;20040;-64
2022/07/07 14:37:48;;;;;;;14.10;2.95;;;;;;;;;;5103576;28;20370;-64
2022/07/07 14:40:14;;;;;;;10.40;2.10;;;;;;;;;;5103982;28;20484;-64